createdAt,value
2018-05-26T00:01:53.869Z,8.40
2018-05-26T00:04:19.942Z,7.00
2018-05-26T00:06:46.722Z,6.47
2018-05-26T00:09:12.763Z,7.67
2018-05-26T00:11:38.805Z,6.27
2018-05-26T00:14:04.826Z,7.00
2018-05-26T00:16:30.861Z,6.53
2018-05-26T00:18:56.902Z,6.90
2018-05-26T00:21:22.950Z,10.00
2018-05-26T00:23:48.978Z,5.83
2018-05-26T00:26:15.018Z,6.60
2018-05-26T00:28:41.042Z,6.10
2018-05-26T00:31:07.082Z,6.50
2018-05-26T00:33:33.115Z,7.73
2018-05-26T00:35:59.217Z,6.60
2018-05-26T00:38:25.986Z,8.27
2018-05-26T00:40:52.767Z,7.30
2018-05-26T00:43:18.797Z,6.70
2018-05-26T00:45:44.826Z,7.13
2018-05-26T00:48:10.850Z,9.13
2018-05-26T00:50:36.890Z,18.73
2018-05-26T00:53:02.934Z,8.80
2018-05-26T00:55:28.970Z,11.83
2018-05-26T00:57:55.010Z,8.07
2018-05-26T01:00:21.056Z,8.73
2018-05-26T01:02:47.090Z,8.60
2018-05-26T01:05:13.134Z,9.50
2018-05-26T01:07:39.177Z,9.30
2018-05-26T01:10:05.201Z,8.87
2018-05-26T01:12:31.235Z,11.10
2018-05-26T01:14:57.246Z,11.40
2018-05-26T01:17:23.275Z,10.30
2018-05-26T01:19:50.030Z,12.73
2018-05-26T01:22:16.809Z,10.63
2018-05-26T01:24:42.819Z,11.67
2018-05-26T01:27:09.590Z,12.27
2018-05-26T01:29:35.606Z,10.30
2018-05-26T01:32:02.365Z,11.30
2018-05-26T01:34:29.126Z,11.17
2018-05-26T01:36:55.153Z,13.63
2018-05-26T01:39:21.918Z,10.53
2018-05-26T01:41:47.942Z,16.20
2018-05-26T01:44:14.709Z,15.27
2018-05-26T01:46:40.730Z,13.20
2018-05-26T01:49:07.494Z,14.67
2018-05-26T01:51:33.524Z,12.43
2018-05-26T01:54:00.294Z,10.93
2018-05-26T01:56:26.301Z,12.97
2018-05-26T01:58:53.070Z,13.00
2018-05-26T02:01:19.089Z,13.53
2018-05-26T02:03:45.854Z,22.70
2018-05-26T02:06:12.613Z,15.90
2018-05-26T02:08:38.650Z,17.53
2018-05-26T02:11:04.665Z,17.10
2018-05-26T02:13:31.441Z,15.03
2018-05-26T02:15:57.465Z,14.23
2018-05-26T02:18:24.230Z,14.80
2018-05-26T02:20:50.257Z,16.67
2018-05-26T02:23:17.061Z,15.30
2018-05-26T02:25:43.101Z,13.77
2018-05-26T02:28:09.162Z,15.13
2018-05-26T02:30:35.918Z,18.03
2018-05-26T02:33:01.993Z,13.00
2018-05-26T02:35:28.013Z,13.07
2018-05-26T02:37:54.820Z,17.57
2018-05-26T02:40:20.851Z,14.57
2018-05-26T02:42:46.894Z,14.63
2018-05-26T02:45:12.905Z,14.97
2018-05-26T02:47:38.938Z,18.40
2018-05-26T02:50:04.970Z,14.70
2018-05-26T02:52:30.989Z,15.23
2018-05-26T02:54:57.025Z,14.97
2018-05-26T02:57:23.046Z,15.17
2018-05-26T02:59:49.823Z,17.27
2018-05-26T03:02:15.841Z,16.80
2018-05-26T03:04:48.910Z,18.50
2018-05-26T03:07:20.979Z,13.37
2018-05-26T03:09:53.191Z,15.33
2018-05-26T03:12:25.979Z,16.33
2018-05-26T03:14:52.689Z,14.10
2018-05-26T03:17:18.725Z,17.93
2018-05-26T03:19:44.745Z,15.40
2018-05-26T03:22:10.755Z,17.23
2018-05-26T03:24:37.511Z,14.30
2018-05-26T03:27:03.524Z,15.80
2018-05-26T03:29:29.533Z,17.30
2018-05-26T03:31:55.540Z,37.17
2018-05-26T03:34:21.557Z,14.53
2018-05-26T03:36:48.305Z,13.07
2018-05-26T03:39:15.069Z,17.60
2018-05-26T03:41:41.076Z,17.13
2018-05-26T03:44:07.094Z,14.27
2018-05-26T03:46:33.121Z,14.63
2018-05-26T03:48:59.167Z,16.03
2018-05-26T03:51:25.181Z,15.50
2018-05-26T03:53:51.206Z,20.30
2018-05-26T03:56:29.699Z,14.47
2018-05-26T03:59:08.867Z,16.10
2018-05-26T04:01:34.884Z,17.00
2018-05-26T04:04:01.644Z,15.80
2018-05-26T04:06:28.546Z,16.13
2018-05-26T04:08:54.577Z,13.17
2018-05-26T04:11:20.581Z,18.07
2018-05-26T04:13:46.594Z,15.80
2018-05-26T04:16:12.636Z,19.53
2018-05-26T04:18:38.642Z,15.23
2018-05-26T04:21:04.669Z,15.27
2018-05-26T04:23:30.692Z,17.30
2018-05-26T04:25:56.709Z,16.37
2018-05-26T04:28:22.718Z,16.60
2018-05-26T04:30:48.729Z,16.13
2018-05-26T04:33:15.481Z,18.07
2018-05-26T04:35:42.234Z,16.70
2018-05-26T04:38:08.985Z,14.37
2018-05-26T04:40:35.744Z,14.90
2018-05-26T04:43:03.857Z,16.63
2018-05-26T04:45:29.956Z,14.23
2018-05-26T04:47:56.704Z,17.20
2018-05-26T04:50:23.461Z,12.87
2018-05-26T04:52:51.426Z,19.20
2018-05-26T04:55:17.533Z,12.00
2018-05-26T04:57:43.538Z,15.00
2018-05-26T05:00:09.556Z,15.53
2018-05-26T05:02:36.313Z,15.43
2018-05-26T05:05:03.081Z,16.27
2018-05-26T05:07:29.085Z,15.63
2018-05-26T05:09:55.874Z,12.60
2018-05-26T05:12:21.898Z,16.43
2018-05-26T05:14:47.913Z,13.17
2018-05-26T05:17:14.693Z,15.83
2018-05-26T05:19:40.715Z,15.80
2018-05-26T05:22:07.477Z,12.40
2018-05-26T05:24:33.521Z,12.80
2018-05-26T05:26:59.549Z,11.33
2018-05-26T05:29:25.565Z,12.47
2018-05-26T05:31:52.341Z,12.47
2018-05-26T05:34:18.365Z,13.80
2018-05-26T05:36:45.148Z,11.30
2018-05-26T05:39:11.174Z,12.80
2018-05-26T05:41:37.200Z,13.10
2018-05-26T05:44:03.229Z,13.80
2018-05-26T05:46:29.255Z,20.00
2018-05-26T05:48:56.044Z,15.50
2018-05-26T05:51:22.077Z,18.00
2018-05-26T05:53:48.096Z,14.30
2018-05-26T05:56:14.201Z,14.53
2018-05-26T05:58:40.236Z,13.70
2018-05-26T06:01:06.262Z,11.60
2018-05-26T06:03:32.274Z,13.00
2018-05-26T06:05:58.310Z,13.37
2018-05-26T06:08:24.338Z,12.17
2018-05-26T06:10:50.357Z,12.43
2018-05-26T06:13:16.384Z,12.57
2018-05-26T06:15:42.462Z,12.13
2018-05-26T06:18:08.495Z,13.33
2018-05-26T06:20:34.513Z,16.20
2018-05-26T06:23:00.561Z,16.60
2018-05-26T06:25:26.588Z,10.87
2018-05-26T06:27:52.625Z,14.50
2018-05-26T06:30:18.650Z,12.17
2018-05-26T06:32:44.721Z,11.60
2018-05-26T06:35:10.767Z,10.50
2018-05-26T06:37:36.824Z,31.93
2018-05-26T06:40:02.848Z,10.20
2018-05-26T06:42:29.639Z,10.17
2018-05-26T06:44:55.661Z,8.60
2018-05-26T06:47:21.709Z,7.40
2018-05-26T06:49:47.726Z,6.93
2018-05-26T06:52:13.761Z,8.50
2018-05-26T06:54:40.529Z,7.57
2018-05-26T06:57:06.557Z,9.40
2018-05-26T06:59:32.589Z,7.33
2018-05-26T07:01:58.618Z,6.37
2018-05-26T07:04:25.402Z,9.03
2018-05-26T07:06:51.422Z,8.13
2018-05-26T07:09:17.466Z,6.80
2018-05-26T07:11:43.469Z,8.90
2018-05-26T07:14:10.227Z,9.67
2018-05-26T07:16:36.989Z,6.97
2018-05-26T07:19:03.005Z,7.93
2018-05-26T07:21:29.769Z,8.03
2018-05-26T07:23:56.541Z,10.30
2018-05-26T07:26:22.544Z,7.93
2018-05-26T07:28:49.304Z,7.13
2018-05-26T07:31:16.087Z,7.03
2018-05-26T07:33:42.153Z,6.17
2018-05-26T07:36:08.133Z,6.90
2018-05-26T07:38:34.897Z,5.87
2018-05-26T07:41:00.921Z,7.43
2018-05-26T07:43:27.267Z,5.43
2018-05-26T07:45:54.045Z,6.77
2018-05-26T07:48:20.070Z,6.53
2018-05-26T07:50:46.111Z,5.37
2018-05-26T07:53:12.235Z,5.97
2018-05-26T07:55:38.209Z,4.70
2018-05-26T07:58:04.260Z,5.53
2018-05-26T08:00:30.322Z,4.93
2018-05-26T08:02:56.341Z,3.42
2018-05-26T08:05:22.378Z,4.13
2018-05-26T08:07:48.369Z,4.60
2018-05-26T08:10:14.385Z,4.57
2018-05-26T08:12:40.393Z,5.10
2018-05-26T08:15:06.509Z,7.75
2018-05-26T08:17:32.516Z,4.75
2018-05-26T08:19:58.539Z,5.12
2018-05-26T08:22:24.557Z,4.90
2018-05-26T08:24:50.609Z,3.78
2018-05-26T08:27:16.731Z,7.60
2018-05-26T08:29:42.783Z,3.37
2018-05-26T08:32:08.842Z,4.47
2018-05-26T08:34:34.919Z,4.00
2018-05-26T08:37:01.666Z,3.30
2018-05-26T08:39:28.432Z,4.32
2018-05-26T08:41:55.241Z,3.83
2018-05-26T08:44:21.310Z,4.30
2018-05-26T08:46:47.314Z,5.15
2018-05-26T08:49:13.389Z,3.70
2018-05-26T08:51:40.186Z,6.22
2018-05-26T08:54:06.255Z,8.43
2018-05-26T08:56:32.225Z,4.10
2018-05-26T08:58:58.973Z,3.72
2018-05-26T09:01:25.738Z,4.05
2018-05-26T09:03:51.873Z,4.18
2018-05-26T09:06:17.937Z,3.28
2018-05-26T09:08:44.721Z,3.95
2018-05-26T09:11:10.779Z,3.53
2018-05-26T09:13:37.650Z,4.00
2018-05-26T09:16:04.522Z,3.87
2018-05-26T09:18:30.649Z,3.40
2018-05-26T09:20:56.697Z,3.67
2018-05-26T09:23:22.794Z,3.75
2018-05-26T09:25:48.806Z,3.83
2018-05-26T09:28:14.845Z,3.62
2018-05-26T09:30:40.856Z,3.78
2018-05-26T09:33:06.942Z,4.40
2018-05-26T09:35:32.984Z,3.65
2018-05-26T09:37:59.743Z,3.60
2018-05-26T09:40:26.523Z,6.57
2018-05-26T09:42:52.527Z,3.40
2018-05-26T09:45:19.281Z,4.18
2018-05-26T09:47:46.093Z,3.72
2018-05-26T09:50:12.162Z,3.60
2018-05-26T09:52:38.181Z,6.10
2018-05-26T09:55:04.314Z,3.42
2018-05-26T09:57:30.363Z,2.42
2018-05-26T09:59:56.357Z,3.10
2018-05-26T10:02:22.369Z,4.07
2018-05-26T10:04:48.446Z,3.10
2018-05-26T10:07:14.521Z,3.17
2018-05-26T10:09:41.286Z,3.10
2018-05-26T10:12:08.083Z,3.70
2018-05-26T10:14:34.100Z,3.75
2018-05-26T10:17:00.145Z,4.00
2018-05-26T10:19:26.150Z,3.62
2018-05-26T10:21:52.181Z,3.37
2018-05-26T10:24:18.939Z,3.10
2018-05-26T10:26:44.970Z,6.80
2018-05-26T10:29:11.741Z,2.85
2018-05-26T10:31:37.791Z,2.90
2018-05-26T10:34:03.817Z,2.92
2018-05-26T10:36:29.935Z,2.70
2018-05-26T10:38:55.986Z,4.43
2018-05-26T10:41:22.006Z,2.50
2018-05-26T10:43:48.047Z,3.05
2018-05-26T10:46:23.334Z,2.47
2018-05-26T10:48:49.404Z,4.18
2018-05-26T10:51:16.167Z,2.80
2018-05-26T10:53:42.983Z,2.90
2018-05-26T10:56:09.101Z,3.30
2018-05-26T10:58:35.186Z,2.40
2018-05-26T11:01:01.230Z,5.03
2018-05-26T11:03:27.260Z,2.70
2018-05-26T11:05:53.302Z,3.03
2018-05-26T11:08:20.079Z,4.65
2018-05-26T11:10:46.089Z,2.20
2018-05-26T11:13:12.109Z,2.47
2018-05-26T11:15:38.134Z,2.85
2018-05-26T11:18:04.145Z,2.70
2018-05-26T11:20:30.185Z,3.30
2018-05-26T11:22:56.223Z,5.30
2018-05-26T11:25:22.249Z,2.83
2018-05-26T11:27:48.279Z,4.03
2018-05-26T11:30:14.283Z,2.70
2018-05-26T11:32:41.051Z,2.40
2018-05-26T11:35:07.073Z,3.65
2018-05-26T11:37:33.861Z,2.70
2018-05-26T11:39:59.873Z,2.60
2018-05-26T11:42:26.648Z,2.92
2018-05-26T11:44:52.739Z,3.55
2018-05-26T11:47:18.744Z,3.05
2018-05-26T11:49:44.758Z,2.65
2018-05-26T11:52:12.465Z,2.92
2018-05-26T11:54:38.485Z,2.80
2018-05-26T11:57:04.494Z,3.08
2018-05-26T11:59:30.509Z,7.62
2018-05-26T12:01:57.268Z,2.70
2018-05-26T12:04:24.027Z,3.00
2018-05-26T12:06:50.043Z,2.62
2018-05-26T12:09:16.073Z,2.67
2018-05-26T12:11:42.110Z,2.80
2018-05-26T12:14:08.145Z,2.70
2018-05-26T12:16:34.173Z,2.70
2018-05-26T12:19:00.306Z,2.92
2018-05-26T12:21:26.369Z,3.67
2018-05-26T12:23:53.137Z,2.78
2018-05-26T12:26:19.174Z,6.82
2018-05-26T12:28:45.205Z,2.37
2018-05-26T12:31:11.972Z,2.55
2018-05-26T12:33:38.030Z,3.20
2018-05-26T12:36:04.063Z,2.78
2018-05-26T12:38:30.082Z,2.50
2018-05-26T12:40:56.128Z,2.78
2018-05-26T12:43:22.152Z,2.37
2018-05-26T12:45:48.182Z,3.00
2018-05-26T12:48:14.213Z,2.87
2018-05-26T12:50:40.994Z,1.85
2018-05-26T12:53:07.022Z,2.92
2018-05-26T12:55:33.076Z,4.40
2018-05-26T12:57:59.090Z,5.20
2018-05-26T13:00:25.121Z,2.92
2018-05-26T13:02:51.136Z,3.25
2018-05-26T13:05:17.913Z,2.50
2018-05-26T13:07:43.946Z,3.33
2018-05-26T13:10:09.985Z,2.50
2018-05-26T13:12:35.993Z,2.87
2018-05-26T13:15:02.775Z,2.53
2018-05-26T13:17:28.797Z,4.43
2018-05-26T13:19:55.560Z,2.60
2018-05-26T13:22:21.589Z,2.92
2018-05-26T13:24:48.346Z,2.92
2018-05-26T13:27:14.378Z,3.42
2018-05-26T13:29:40.419Z,3.28
2018-05-26T13:32:07.187Z,3.75
2018-05-26T13:34:33.209Z,6.77
2018-05-26T13:36:59.234Z,4.40
2018-05-26T13:39:25.997Z,3.47
2018-05-26T13:41:52.773Z,3.33
2018-05-26T13:44:18.791Z,3.17
2018-05-26T13:46:44.825Z,3.40
2018-05-26T13:49:11.631Z,3.40
2018-05-26T13:51:37.719Z,3.45
2018-05-26T13:54:03.703Z,4.55
2018-05-26T13:56:29.776Z,4.97
2018-05-26T13:58:55.777Z,3.33
2018-05-26T14:01:21.804Z,8.55
2018-05-26T14:03:47.830Z,2.78
2018-05-26T14:06:13.865Z,4.00
2018-05-26T14:08:39.885Z,2.78
2018-05-26T14:11:05.902Z,6.37
2018-05-26T14:13:31.902Z,2.90
2018-05-26T14:15:57.928Z,4.87
2018-05-26T14:18:23.941Z,3.00
2018-05-26T14:20:49.961Z,2.72
2018-05-26T14:23:15.978Z,2.85
2018-05-26T14:25:42.739Z,2.72
2018-05-26T14:28:08.764Z,3.03
2018-05-26T14:30:35.577Z,3.50
2018-05-26T14:33:01.598Z,4.00
2018-05-26T14:35:27.585Z,3.37
2018-05-26T14:37:54.348Z,2.78
2018-05-26T14:40:20.358Z,6.87
2018-05-26T14:42:46.389Z,3.12
2018-05-26T14:45:12.420Z,3.83
2018-05-26T14:47:38.454Z,2.60
2018-05-26T14:50:04.504Z,3.90
2018-05-26T14:52:30.513Z,2.83
2018-05-26T14:54:56.525Z,2.80
2018-05-26T14:57:22.541Z,3.62
2018-05-26T14:59:48.562Z,3.37
2018-05-26T15:02:15.360Z,3.15
2018-05-26T15:04:41.373Z,2.75
2018-05-26T15:07:07.385Z,3.80
2018-05-26T15:09:34.155Z,2.50
2018-05-26T15:12:00.177Z,6.22
2018-05-26T15:14:26.990Z,3.08
2018-05-26T15:16:53.101Z,4.28
2018-05-26T15:19:19.125Z,3.00
2018-05-26T15:21:45.150Z,2.70
2018-05-26T15:24:11.445Z,4.30
2018-05-26T15:26:37.453Z,2.72
2018-05-26T15:29:03.504Z,2.97
2018-05-26T15:31:29.533Z,3.20
2018-05-26T15:33:55.567Z,4.62
2018-05-26T15:36:21.588Z,3.12
2018-05-26T15:38:47.626Z,3.28
2018-05-26T15:41:13.653Z,3.25
2018-05-26T15:43:39.685Z,4.12
2018-05-26T15:46:05.731Z,2.87
2018-05-26T15:48:31.765Z,5.12
2018-05-26T15:50:57.781Z,5.32
2018-05-26T15:53:24.557Z,4.53
2018-05-26T15:55:50.629Z,9.55
2018-05-26T15:58:16.662Z,3.35
2018-05-26T16:00:42.677Z,4.50
2018-05-26T16:03:08.716Z,3.50
2018-05-26T16:05:34.745Z,5.32
2018-05-26T16:08:00.769Z,4.47
2018-05-26T16:10:26.786Z,3.75
2018-05-26T16:12:53.549Z,4.57
2018-05-26T16:15:19.574Z,3.33
2018-05-26T16:17:46.327Z,5.23
2018-05-26T16:20:13.105Z,3.97
2018-05-26T16:22:39.123Z,3.53
2018-05-26T16:25:05.897Z,4.10
2018-05-26T16:27:31.905Z,4.30
2018-05-26T16:29:58.670Z,3.23
2018-05-26T16:32:24.690Z,4.33
2018-05-26T16:34:51.452Z,3.83
2018-05-26T16:37:18.201Z,3.33
2018-05-26T16:39:44.961Z,4.40
2018-05-26T16:42:11.782Z,5.60
2018-05-26T16:44:37.804Z,3.63
2018-05-26T16:47:03.857Z,4.10
2018-05-26T16:49:37.775Z,4.30
2018-05-26T16:52:03.791Z,4.50
2018-05-26T16:54:29.824Z,5.40
2018-05-26T16:56:55.833Z,4.47
2018-05-26T16:59:28.814Z,5.70
2018-05-26T17:01:55.570Z,5.13
2018-05-26T17:04:22.339Z,4.63
2018-05-26T17:06:48.345Z,4.67
2018-05-26T17:09:15.137Z,4.60
2018-05-26T17:11:41.155Z,5.60
2018-05-26T17:14:07.167Z,10.00
2018-05-26T17:16:33.238Z,6.83
2018-05-26T17:18:59.318Z,5.80
2018-05-26T17:21:25.372Z,6.00
2018-05-26T17:23:51.493Z,5.73
2018-05-26T17:26:17.525Z,4.90
2018-05-26T17:28:43.546Z,6.40
2018-05-26T17:31:09.581Z,6.53
2018-05-26T17:33:35.653Z,5.53
2018-05-26T17:36:01.694Z,9.20
2018-05-26T17:38:28.462Z,4.87
2018-05-26T17:40:55.225Z,4.83
2018-05-26T17:43:21.277Z,5.87
2018-05-26T17:45:48.029Z,6.37
2018-05-26T17:48:14.045Z,8.10
2018-05-26T17:50:40.820Z,6.30
2018-05-26T17:53:06.834Z,5.97
2018-05-26T17:55:33.665Z,7.10
2018-05-26T17:57:59.719Z,6.90
2018-05-26T18:00:26.502Z,6.80
2018-05-26T18:02:52.545Z,6.47
2018-05-26T18:05:18.583Z,8.20
2018-05-26T18:07:44.611Z,7.13
2018-05-26T18:10:10.692Z,6.30
2018-05-26T18:12:36.738Z,8.40
2018-05-26T18:15:02.787Z,6.50
2018-05-26T18:17:29.572Z,5.70
2018-05-26T18:19:55.604Z,6.27
2018-05-26T18:22:21.868Z,9.40
2018-05-26T18:24:48.107Z,6.70
2018-05-26T18:27:14.150Z,9.67
2018-05-26T18:29:40.212Z,9.57
2018-05-26T18:32:06.363Z,9.73
2018-05-26T18:34:32.497Z,9.33
2018-05-26T18:36:58.631Z,6.27
2018-05-26T18:39:24.669Z,6.50
2018-05-26T18:41:50.713Z,6.13
2018-05-26T18:44:16.734Z,9.37
2018-05-26T18:46:42.773Z,9.70
2018-05-26T18:49:08.910Z,7.00
2018-05-26T18:51:34.957Z,8.93
2018-05-26T18:54:01.107Z,7.20
2018-05-26T18:56:27.876Z,7.80
2018-05-26T18:58:53.914Z,7.77
2018-05-26T19:01:19.941Z,15.07
2018-05-26T19:03:46.768Z,7.90
2018-05-26T19:06:12.793Z,7.60
2018-05-26T19:08:38.825Z,7.03
2018-05-26T19:11:04.869Z,8.47
2018-05-26T19:13:30.879Z,7.70
2018-05-26T19:15:56.940Z,7.90
2018-05-26T19:18:22.915Z,7.53
2018-05-26T19:20:49.673Z,8.17
2018-05-26T19:23:15.744Z,7.47
2018-05-26T19:25:41.773Z,10.50
2018-05-26T19:28:07.788Z,7.50
2018-05-26T19:30:33.790Z,9.00
2018-05-26T19:32:59.916Z,6.57
2018-05-26T19:35:25.930Z,7.03
2018-05-26T19:37:51.979Z,5.63
2018-05-26T19:40:17.998Z,8.97
2018-05-26T19:42:44.016Z,6.90
2018-05-26T19:45:10.056Z,8.70
2018-05-26T19:47:36.134Z,22.97
2018-05-26T19:50:02.208Z,9.77
2018-05-26T19:52:28.234Z,5.10
2018-05-26T19:54:54.288Z,7.83
2018-05-26T19:57:20.308Z,34.30
2018-05-26T19:59:47.077Z,33.13
2018-05-26T20:02:13.105Z,40.87
2018-05-26T20:04:39.129Z,14.53
2018-05-26T20:07:05.890Z,6.70
2018-05-26T20:09:32.657Z,5.37
2018-05-26T20:11:58.681Z,13.73
2018-05-26T20:14:25.439Z,6.80
2018-05-26T20:16:52.219Z,5.17
2018-05-26T20:19:18.291Z,8.33
2018-05-26T20:21:44.268Z,7.83
2018-05-26T20:24:10.289Z,6.40
2018-05-26T20:26:36.297Z,4.80
2018-05-26T20:29:02.333Z,7.20
2018-05-26T20:31:28.358Z,6.30
2018-05-26T20:33:54.381Z,5.03
2018-05-26T20:36:20.527Z,6.70
2018-05-26T20:38:46.568Z,7.57
2018-05-26T20:41:12.589Z,6.43
2018-05-26T20:43:38.661Z,5.53
2018-05-26T20:46:04.679Z,4.93
2018-05-26T20:48:30.694Z,5.33
2018-05-26T20:50:56.743Z,3.73
2018-05-26T20:53:22.789Z,6.13
2018-05-26T20:55:48.821Z,5.97
2018-05-26T20:58:14.961Z,5.17
2018-05-26T21:00:40.985Z,9.20
2018-05-26T21:03:07.009Z,6.10
2018-05-26T21:05:33.037Z,4.80
2018-05-26T21:07:59.059Z,5.50
2018-05-26T21:10:25.082Z,5.43
2018-05-26T21:12:51.105Z,4.93
2018-05-26T21:15:17.875Z,5.40
2018-05-26T21:17:43.916Z,5.03
2018-05-26T21:20:09.946Z,8.70
2018-05-26T21:22:35.973Z,6.17
2018-05-26T21:25:02.741Z,8.17
2018-05-26T21:27:28.766Z,6.30
2018-05-26T21:29:54.780Z,8.73
2018-05-26T21:32:20.784Z,5.20
2018-05-26T21:34:46.806Z,5.97
2018-05-26T21:37:12.831Z,9.73
2018-05-26T21:39:38.849Z,7.47
2018-05-26T21:42:04.885Z,7.77
2018-05-26T21:44:30.966Z,5.53
2018-05-26T21:46:56.990Z,4.17
2018-05-26T21:49:23.001Z,5.40
2018-05-26T21:51:49.028Z,5.20
2018-05-26T21:54:15.044Z,5.07
2018-05-26T21:56:41.798Z,4.50
2018-05-26T21:59:08.556Z,4.40
2018-05-26T22:01:35.329Z,6.60
2018-05-26T22:04:01.353Z,4.10
2018-05-26T22:06:27.416Z,7.57
2018-05-26T22:08:53.438Z,6.97
2018-05-26T22:11:19.469Z,4.83
2018-05-26T22:13:45.511Z,6.50
2018-05-26T22:16:11.545Z,4.87
2018-05-26T22:18:37.575Z,4.73
2018-05-26T22:21:03.614Z,4.77
2018-05-26T22:23:29.644Z,6.20
2018-05-26T22:25:55.673Z,4.43
2018-05-26T22:28:21.711Z,5.20
2018-05-26T22:30:47.734Z,4.83
2018-05-26T22:33:14.524Z,4.07
2018-05-26T22:35:40.581Z,4.93
2018-05-26T22:38:06.575Z,3.73
2018-05-26T22:40:32.614Z,3.93
2018-05-26T22:42:58.637Z,3.73
2018-05-26T22:45:25.416Z,4.47
2018-05-26T22:47:51.457Z,4.77
2018-05-26T22:50:17.475Z,4.83
2018-05-26T22:52:43.540Z,4.87
2018-05-26T22:55:09.579Z,4.60
2018-05-26T22:57:35.618Z,3.93
2018-05-26T23:00:01.646Z,6.10
2018-05-26T23:02:27.675Z,8.40
2018-05-26T23:04:53.697Z,4.20
2018-05-26T23:07:19.728Z,5.37
2018-05-26T23:09:45.765Z,5.73
2018-05-26T23:12:11.792Z,6.27
2018-05-26T23:14:37.820Z,6.40
2018-05-26T23:17:04.597Z,4.70
2018-05-26T23:19:30.624Z,6.77
2018-05-26T23:21:56.657Z,5.53
2018-05-26T23:24:22.688Z,5.77
2018-05-26T23:26:48.729Z,9.87
2018-05-26T23:29:14.762Z,8.43
2018-05-26T23:31:40.793Z,5.10
2018-05-26T23:34:06.833Z,5.40
2018-05-26T23:36:32.866Z,7.50
2018-05-26T23:38:58.887Z,7.43
2018-05-26T23:41:25.656Z,9.40
2018-05-26T23:43:51.702Z,6.27
2018-05-26T23:46:17.728Z,5.57
2018-05-26T23:48:43.757Z,6.63
2018-05-26T23:51:09.781Z,12.17
2018-05-26T23:53:36.564Z,7.83
2018-05-26T23:56:02.602Z,5.00
2018-05-26T23:58:28.654Z,10.50
